Bookmark and Share
Track history (hours):
 

Linda Fortune

Last reported at 2014-Apr-13 14:33 UTC. Time now 2014-Apr-21 03:00 UTC.
Position S 35°09' E 031°10'.

Length 281 m; draft 18.2 m.

Type: Cargo ship. MMSI: 352793000.

NotesDate/timePositionNaut miles runAvg speedWind from/ knotsBaromVisibWave heightAir tempDewpointWater temp
2014-Apr-13 14:33S 35°09' E 031°10'30511.1
2014-Apr-12 11:10S 35°05' E 024°57'15 8.8
2014-Apr-12 09:29S 35°05' E 024°39'11 8.6
2014-Apr-12 08:12S 35°05' E 024°25'7 8.9
2014-Apr-12 07:22S 35°05' E 024°16'8 9.6
2014-Apr-12 06:30S 35°05' E 024°06'1411.4
2014-Apr-12 05:14S 35°04' E 023°48'17112.5
2014-Apr-11 15:33S 35°14' E 020°20'1612.2
2014-Apr-11 14:15S 35°15' E 020°00'1014.2
2014-Apr-11 13:33S 35°12' E 019°49'1413.4
2014-Apr-11 12:33S 35°07' E 019°34'1212.3
2014-Apr-11 11:32S 35°02' E 019°20'1212.3
2014-Apr-11 10:33S 34°57' E 019°06'1212.3
2014-Apr-11 09:34S 34°53' E 018°52'1312.5
2014-Apr-11 08:30S 34°48' E 018°38'1412.3
2014-Apr-11 07:21S 34°42' E 018°22'2212.1
2014-Apr-11 05:31S 34°33' E 017°57'1212.3
2014-Apr-11 04:33S 34°24' E 017°48'1311.8
2014-Apr-11 03:25S 34°12' E 017°40'2311.1
2014-Apr-11 01:20S 33°54' E 017°23'5510.7
2014-Apr-10 20:09S 33°09' E 016°44'1810.8
2014-Apr-10 18:30S 32°55' E 016°30'  

Dump ship's entire track history

sailing weather and tide predictions

Linda Fortune — 3FOW6 — position and weather